2022年9月25日

时间 代码 天气 温度 能见度 天花板 METAR/SPECI
06:00
V
11 °C 10 km+ - Var Var 2 kt METAR LFBO 250400Z AUTO VRB02KT 9999 FEW010 11/10 Q1015 TEMPO BKN008
05:30
V
11 °C 10 km+ - 190° 190° 4 kt METAR LFBO 250330Z AUTO 19004KT 9999 FEW010 11/10 Q1015 TEMPO BKN008
05:00
V
11 °C 10 km+ - 220° 220° 5 kt METAR LFBO 250300Z AUTO 22005KT CAVOK 11/10 Q1015 TEMPO BKN008
04:30
V
12 °C 10 km+ - 180° 180° 5 kt METAR LFBO 250230Z AUTO 18005KT 9999 FEW021 12/11 Q1015 TEMPO BKN008
04:00
V
12 °C 10 km+ - 210° 210° 5 kt METAR LFBO 250200Z AUTO 21005KT CAVOK 12/11 Q1015 TEMPO BKN008
03:30
V
13 °C 10 km+ - 230° 230° 6 kt METAR LFBO 250130Z AUTO 23006KT CAVOK 13/11 Q1015 TEMPO BKN008
03:00
V
13 °C 10 km+ - 240° 240° 6 kt METAR LFBO 250100Z AUTO 24006KT CAVOK 13/11 Q1015 TEMPO BKN012
02:30
V
13 °C 10 km+ - 230° 230° 7 kt METAR LFBO 250030Z AUTO 23007KT CAVOK 13/11 Q1016 TEMPO BKN012
02:00
V
14 °C 10 km+ - 260° 260° 9 kt METAR LFBO 250000Z AUTO 26009KT CAVOK 14/12 Q1015 TEMPO BKN012
01:30
V
14 °C 10 km+ - 270° 270° 10 kt METAR LFBO 242330Z AUTO 27010KT CAVOK 14/12 Q1015 NOSIG
01:00
V
14 °C 10 km+ - 270° 270° 10 kt METAR LFBO 242300Z AUTO 27010KT CAVOK 14/11 Q1015 NOSIG
00:30
V
15 °C 10 km+ - 260° 260° 12 kt METAR LFBO 242230Z AUTO 26012KT CAVOK 15/12 Q1016 NOSIG
00:00
V
15 °C 10 km+ - 260° 260° 10 kt METAR LFBO 242200Z AUTO 26010KT CAVOK 15/12 Q1015 NOSIG

2022年9月24日

时间 代码 天气 温度 能见度 天花板 METAR/SPECI
23:30
V
14 °C 10 km+ - 250° 250° 6 kt METAR LFBO 242130Z AUTO 25006KT CAVOK 14/11 Q1016 NOSIG
23:00
V
15 °C 10 km+ - 240° 240° 8 kt METAR LFBO 242100Z AUTO 24008KT CAVOK 15/12 Q1016 BECMG 30010KT
22:30
V
15 °C 10 km+ - 230° 230° 9 kt METAR LFBO 242030Z AUTO 23009KT 9999 FEW029/// SCT078/// //////TCU 15/12 Q1016 BECMG 30010KT SCT020 BKN080
22:00
V
15 °C 10 km+ 11.000 ft 230° 230° 9 kt METAR LFBO 242000Z AUTO 23009KT 220V280 9999 FEW033 BKN110 15/12 Q1016 TEMPO 4000 -SHRA BKN030TCU
21:30
V
16 °C 10 km+ - 240° 240° 9 kt METAR LFBO 241930Z AUTO 24009KT CAVOK 16/12 Q1016 TEMPO 4000 -SHRA BKN030TCU BECMG 30010KT
21:00
V
17 °C 10 km+ - 220° 220° 7 kt METAR LFBO 241900Z AUTO 22007KT 9999 //////TCU 17/12 Q1015 TEMPO 4000 -SHRA BECMG 30010KT
20:30
V
17 °C 10 km+ - 260° 260° 10 kt METAR LFBO 241830Z AUTO 26010KT 9999 ///TCU 17/12 Q1015 TEMPO 4000 -SHRA
20:00
V
17 °C 10 km+ - 250° 250° 9 kt METAR LFBO 241800Z AUTO 25009KT 9999 //////TCU 17/12 Q1015 TEMPO 4000 -SHRA
19:30
V
17 °C 10 km+ 10.000 ft 240° 240° 8 kt METAR LFBO 241730Z AUTO 24008KT 9999 FEW027 BKN100 OVC130 17/12 Q1015 TEMPO 4000 -SHRA BKN030TCU BECMG 30010KT
19:00
V
17 °C 10 km+ - 250° 250° 9 kt METAR LFBO 241700Z AUTO 25009KT 210V270 CAVOK 17/12 Q1014 TEMPO 4000 -SHRA BKN030TCU
18:30
V
17 °C 10 km+ - 250° 250° 8 kt METAR LFBO 241630Z AUTO 25008KT 210V270 9999 //////TCU 17/11 Q1014 TEMPO 4000 -SHRA
18:00
V
17 °C 10 km+ 7.400 ft 260° 260° 6 kt METAR LFBO 241600Z AUTO 26006KT 220V300 9999 FEW023/// OVC074/// //////TCU 17/11 Q1014 TEMPO 4000 -SHRA
17:30
V
17 °C 10 km+ 7.800 ft 300° 300° 9 kt METAR LFBO 241530Z AUTO 30009KT 9999 FEW022/// OVC078/// //////CB 17/12 Q1014 TEMPO 4000 -SHRA
17:00
V
18 °C 10 km+ - 310° 310° 11 kt METAR LFBO 241500Z AUTO 31011KT 9999 //////TCU 18/11 Q1014 TEMPO 4000 -SHRA
16:30
V
19 °C 10 km+ 8.800 ft 320° 320° 16 kt METAR LFBO 241430Z AUTO 32016KT 9999 FEW026 BKN088 19/12 Q1014 TEMPO 4000 -SHRA BKN030TCU
16:00
V
20 °C 10 km+ 9.200 ft 330° 330° 14 kt METAR LFBO 241400Z AUTO 33014KT 9999 FEW030 BKN092 20/11 Q1014 TEMPO 4000 -SHRA BKN030TCU
15:30
V
20 °C 10 km+ 10.000 ft 290° 290° 10 kt METAR LFBO 241330Z AUTO 29010KT 9999 FEW025 BKN100 BKN130 20/12 Q1014 TEMPO 4000 -SHRA BKN030TCU
15:00
V
20 °C 10 km+ 6.600 ft 300° 300° 12 kt METAR LFBO 241300Z AUTO 30012KT 9999 SCT024 SCT054 BKN066 20/13 Q1014 TEMPO 4000 -SHRA BKN030TCU
14:30
V
20 °C 10 km+ 6.200 ft 290° 290° 12 kt METAR LFBO 241230Z AUTO 29012KT 9999 FEW027 SCT052 BKN062 20/13 Q1015 TEMPO 4000 -SHRA BKN030TCU
14:00
V
20 °C 10 km+ 9.400 ft 290° 290° 12 kt METAR LFBO 241200Z AUTO 29012KT 9999 FEW028 BKN094 BKN110 20/12 Q1015 TEMPO 4000 -SHRA BKN030TCU
13:30
M
20 °C 10 km+ 2.700 ft 290° 290° 11 kt METAR LFBO 241130Z AUTO 29011KT 260V320 9999 BKN027 BKN048 BKN110 20/12 Q1015 TEMPO SCT040TCU
13:00
V
20 °C 10 km+ 4.400 ft 290° 290° 7 kt METAR LFBO 241100Z AUTO 29007KT 250V320 9999 FEW024/// SCT037/// BKN044/// ///TCU 20/14 Q1015 NOSIG
12:30
V
19 °C 10 km+ 4.100 ft 260° 260° 7 kt METAR LFBO 241030Z AUTO 26007KT 240V300 9999 SCT023/// BKN041/// BKN080/// //////TCU 19/13 Q1015 NOSIG
12:00
M
18 °C 10 km+ 2.100 ft 250° 250° 3 kt METAR LFBO 241000Z AUTO 25003KT 210V300 9999 BKN021 BKN100 BKN140 18/13 Q1015 TEMPO SCT040TCU
11:30
V
18 °C 10 km+ 14.000 ft 270° 270° 3 kt METAR LFBO 240930Z AUTO 27003KT 200V320 9999 SCT018 SCT100 BKN140 18/14 Q1015 TEMPO SCT040TCU
11:00
V
17 °C 10 km+ - Var Var 3 kt METAR LFBO 240900Z AUTO VRB03KT 9999 SCT016 SCT021 17/13 Q1015 NOSIG
10:30
M
17 °C 10 km+ 1.400 ft 340° 340° 5 kt METAR LFBO 240830Z AUTO 34005KT 310V010 9999 BKN014 17/14 Q1015 BECMG SCT020 BKN045
10:00
M
17 °C 10 km+ 1.700 ft 330° 330° 6 kt METAR LFBO 240800Z AUTO 33006KT 290V350 9999 SCT010 BKN017 17/14 Q1015 NOSIG
09:30
M
16 °C 10 km+ 1.500 ft 300° 300° 6 kt METAR LFBO 240730Z AUTO 30006KT 9999 FEW010 BKN015 16/14 Q1015 NOSIG
09:00
M
16 °C 10 km+ 1.500 ft 290° 290° 5 kt METAR LFBO 240700Z AUTO 29005KT 9999 SCT010 BKN015 BKN028 16/14 Q1015 TEMPO BKN012
08:30
M
16 °C 10 km+ 1.300 ft 250° 250° 4 kt METAR LFBO 240630Z AUTO 25004KT 220V290 9999 BKN013 BKN028 BKN060 16/14 Q1015 BECMG SCT020 BKN045
08:00
M
16 °C 10 km+ 1.300 ft 230° 230° 5 kt METAR LFBO 240600Z AUTO 23005KT 9999 BKN013 BKN021 OVC027 16/14 Q1015 BECMG SCT020 BKN045
07:30
M
16 °C 10 km+ 2.000 ft 230° 230° 4 kt METAR LFBO 240530Z AUTO 23004KT 190V250 9999 BKN020 BKN025 OVC031 16/14 Q1015 NOSIG
07:00
M
16 °C 10 km+ 2.900 ft 230° 230° 4 kt METAR LFBO 240500Z AUTO 23004KT 180V260 9999 FEW016 BKN029 OVC038 16/14 Q1015 TEMPO BKN005
06:30
V
16 °C 10 km+ 4.200 ft 260° 260° 4 kt METAR LFBO 240430Z AUTO 26004KT 230V290 9999 FEW019 OVC042 16/14 Q1015 TEMPO BKN005
06:00
V
16 °C 10 km+ 4.400 ft 270° 270° 4 kt METAR LFBO 240400Z AUTO 27004KT 9999 FEW018 OVC044 16/14 Q1015 TEMPO BKN005
05:30
V
16 °C 10 km+ 4.300 ft 260° 260° 5 kt METAR LFBO 240330Z AUTO 26005KT 9999 FEW023 OVC043 16/14 Q1015 TEMPO BKN005
05:00
M
16 °C 10 km+ 2.900 ft 260° 260° 6 kt METAR LFBO 240300Z AUTO 26006KT 9999 FEW024 BKN029 OVC036 16/14 Q1015 TEMPO BKN005
04:30
V
16 °C 10 km+ 3.500 ft 260° 260° 9 kt METAR LFBO 240230Z AUTO 26009KT 9999 FEW024 SCT030 BKN035 16/14 Q1015 TEMPO BKN005
04:00
V
16 °C 10 km+ 3.400 ft 240° 240° 6 kt METAR LFBO 240200Z AUTO 24006KT 9999 FEW025 BKN034 BKN041 16/15 Q1015 TEMPO BKN005
03:30
V
16 °C 10 km+ 3.400 ft 230° 230° 4 kt METAR LFBO 240130Z AUTO 23004KT 9999 FEW023 BKN034 BKN046 16/15 Q1016 TEMPO BKN005
03:00
V
16 °C 10 km+ 5.600 ft 210° 210° 4 kt METAR LFBO 240100Z AUTO 21004KT 180V240 9999 SCT048 OVC056 16/15 Q1016 TEMPO BKN005
02:30
V
16 °C 10 km+ 4.700 ft 210° 210° 4 kt METAR LFBO 240030Z AUTO 21004KT 180V240 9999 FEW007 SCT032 BKN047 16/15 Q1016 TEMPO BKN005
02:00
V
16 °C 10 km+ 3.000 ft 260° 260° 6 kt METAR LFBO 240000Z AUTO 26006KT 9999 FEW006 SCT024 BKN030 16/15 Q1016 TEMPO BKN005
01:30
M
16 °C 10 km+ 2.500 ft 290° 290° 5 kt METAR LFBO 232330Z AUTO 29005KT 9999 FEW007 BKN025 OVC060 16/15 Q1016 TEMPO 4000 RA BKN008
01:00
M
16 °C 10 km+ 1.300 ft 280° 280° 6 kt METAR LFBO 232300Z AUTO 28006KT 9999 FEW005 BKN013 BKN019 16/15 Q1017 TEMPO 4000 RA BKN008
00:30
M
16 °C 5 km 2.000 ft 290° 290° 7 kt METAR LFBO 232230Z AUTO 29007KT 5000 -DZ BR SCT006 SCT014 BKN020 16/15 Q1017 TEMPO RA BKN008
00:00
M
16 °C 10 km+ 1.200 ft 280° 280° 3 kt METAR LFBO 232200Z AUTO 28003KT 230V300 9999 SCT008 BKN012 OVC030 16/15 Q1017 TEMPO 4000 RA BKN008

2022年9月23日

时间 代码 天气 温度 能见度 天花板 METAR/SPECI
23:30
I
16 °C 10 km+ 800 ft Var Var 2 kt METAR LFBO 232130Z AUTO VRB02KT 9999 -RA BKN008 BKN012 BKN018 16/15 Q1018 TEMPO 4000 RA
23:00
V
16 °C 10 km+ 3.300 ft Var Var 2 kt METAR LFBO 232100Z AUTO VRB02KT 9999 -RA FEW011/// BKN033/// BKN045/// ///CB 16/15 Q1017 TEMPO 4000 RA BKN008
22:30
V
16 °C 10 km+ 3.600 ft Var Var 2 kt METAR LFBO 232030Z AUTO VRB02KT 9999 -RA FEW011/// BKN036/// BKN070/// //////CB 16/15 Q1017 TEMPO 4000 RA BKN008
22:00
I
16 °C 3,9 km 2.600 ft 360° 360° 6 kt METAR LFBO 232000Z AUTO 36006KT 320V060 3900 RA BR FEW009/// BKN026/// BKN033/// //////CB 16/15 Q1017 TEMPO BKN008
21:30
I
16 °C 4,6 km 2.800 ft 350° 350° 11 kt METAR LFBO 231930Z AUTO 35011KT 4600 RA BR FEW009/// BKN028/// BKN038/// //////CB 16/15 Q1017 TEMPO BKN008 BECMG 28008KT
21:00
V
17 °C 9 km 3.500 ft 340° 340° 12 kt METAR LFBO 231900Z AUTO 34012KT 9000 RA VCTS FEW008/// OVC035/// //////CB 17/16 Q1016 TEMPO 4000 RA BKN008 BECMG 28008KT
20:30
V
18 °C 10 km+ 3.300 ft 360° 360° 9 kt METAR LFBO 231830Z AUTO 36009KT 330V040 9999 SCT009/// SCT024/// OVC033/// //////CB 18/16 Q1016 TEMPO 31015G25KT 4000 RA BKN008
20:00
V
18 °C 10 km+ 3.000 ft 340° 340° 11 kt METAR LFBO 231800Z AUTO 34011KT 9999 -RA FEW008/// SCT019/// BKN030/// ///CB 18/16 Q1016 TEMPO 31015G25KT 2000 TSRA
19:30
V
21 °C 10 km+ 3.400 ft 340° 340° 9 - 20 kt METAR LFBO 231730Z AUTO 34009G20KT 270V040 9999 VCTS FEW018/// BKN034/// BKN058/// ///CB 21/14 Q1016 TEMPO 2000 TSRA
19:00
V
22 °C 10 km+ 4.200 ft 140° 140° 3 kt METAR LFBO 231700Z AUTO 14003KT 100V250 9999 FEW007/// SCT035/// BKN042/// ///CB 22/15 Q1015 TEMPO 31015G25KT 2000 TSRA
18:30
V
23 °C 10 km+ 5.800 ft 150° 150° 9 kt METAR LFBO 231630Z AUTO 15009KT 120V180 9999 SCT035 BKN058 BKN100 23/15 Q1015 TEMPO 31015G25KT 2000 TSRA SCT050CB
18:00
V
24 °C 10 km+ - 140° 140° 9 kt METAR LFBO 231600Z AUTO 14009KT 9999 //////CB 24/15 Q1015 TEMPO 31015G25KT 2000 TSRA
17:30
V
24 °C 10 km+ - 140° 140° 10 kt METAR LFBO 231530Z AUTO 14010KT 130V190 9999 ///CB 24/15 Q1015 TEMPO 31015G25KT 2000 TSRA
17:00
V
24 °C 10 km+ - 150° 150° 10 kt METAR LFBO 231500Z AUTO 15010KT 9999 ///CB 24/14 Q1015 TEMPO 31015G25KT 2000 TSRA
16:30
V
24 °C 10 km+ - 160° 160° 8 kt METAR LFBO 231430Z AUTO 16008KT CAVOK 24/14 Q1015 TEMPO 31015G25KT 2000 TSRA SCT050CB
16:00
V
25 °C 10 km+ - 150° 150° 10 kt METAR LFBO 231400Z AUTO 15010KT CAVOK 25/14 Q1015 TEMPO 4000 SHRA SCT050CB BECMG 28008KT
15:30
V
26 °C 10 km+ - 140° 140° 11 kt METAR LFBO 231330Z AUTO 14011KT 110V170 CAVOK 26/13 Q1015 TEMPO 4000 SHRA SCT050CB BECMG 28008KT
15:00
V
26 °C 10 km+ - 130° 130° 10 kt METAR LFBO 231300Z AUTO 13010KT 100V170 CAVOK 26/14 Q1015 NOSIG
14:30
V
26 °C 10 km+ 12.000 ft 130° 130° 11 kt METAR LFBO 231230Z AUTO 13011KT 090V160 9999 FEW009 BKN120 BKN220 26/13 Q1016 NOSIG
14:00
V
27 °C 10 km+ - 140° 140° 12 kt METAR LFBO 231200Z AUTO 14012KT 090V180 CAVOK 27/14 Q1016 NOSIG
13:30
V
26 °C 10 km+ - 130° 130° 11 kt METAR LFBO 231130Z AUTO 13011KT 090V160 CAVOK 26/15 Q1016 NOSIG
13:00
V
25 °C 10 km+ - 120° 120° 12 kt METAR LFBO 231100Z AUTO 12012KT 100V160 9999 FEW010 SCT220 25/14 Q1016 NOSIG
12:30
V
25 °C 10 km+ - 140° 140° 14 kt METAR LFBO 231030Z AUTO 14014KT 9999 FEW001 SCT230 25/15 Q1017 NOSIG
12:00
V
24 °C 10 km+ - 140° 140° 16 kt METAR LFBO 231000Z AUTO 14016KT 9999 FEW011 SCT240 24/14 Q1017 NOSIG
11:30
V
23 °C 10 km+ - 140° 140° 13 kt METAR LFBO 230930Z AUTO 14013KT CAVOK 23/15 Q1017 NOSIG
11:00
V
22 °C 10 km+ - 130° 130° 13 kt METAR LFBO 230900Z AUTO 13013KT CAVOK 22/15 Q1017 NOSIG
10:30
V
20 °C 10 km+ - 140° 140° 10 kt METAR LFBO 230830Z AUTO 14010KT 110V170 9999 FEW008 20/15 Q1018 NOSIG
10:00
V
19 °C 10 km+ - 150° 150° 10 kt METAR LFBO 230800Z AUTO 15010KT 9999 FEW016 19/14 Q1018 NOSIG
09:30
V
17 °C 10 km+ - 130° 130° 6 kt METAR LFBO 230730Z AUTO 13006KT 100V180 9999 FEW008 17/13 Q1017 NOSIG
09:00
V
15 °C 10 km+ - Var Var 2 kt METAR LFBO 230700Z AUTO VRB02KT CAVOK 15/13 Q1017 NOSIG
08:30
V
13 °C 10 km+ - 200° 200° 3 kt METAR LFBO 230630Z AUTO 20003KT CAVOK 13/11 Q1018 BECMG 14010KT
08:00
V
12 °C 10 km+ - 160° 160° 3 kt METAR LFBO 230600Z AUTO 16003KT CAVOK 12/10 Q1017 NOSIG
07:30
V
12 °C 10 km+ - 170° 170° 4 kt METAR LFBO 230530Z AUTO 17004KT 9999 FEW007 12/10 Q1017 NOSIG
07:00
V
12 °C 10 km+ - 190° 190° 3 kt METAR LFBO 230500Z AUTO 19003KT 9999 FEW008 12/10 Q1017 NOSIG
06:30
V
13 °C 10 km+ - 180° 180° 3 kt METAR LFBO 230430Z AUTO 18003KT CAVOK 13/10 Q1017 NOSIG
06:00
V
12 °C 10 km+ - 170° 170° 3 kt METAR LFBO 230400Z AUTO 17003KT CAVOK 12/10 Q1017 NOSIG
05:30
V
13 °C 10 km+ - 170° 170° 3 kt METAR LFBO 230330Z AUTO 17003KT CAVOK 13/10 Q1017 NOSIG
05:00
V
14 °C 10 km+ - 190° 190° 4 kt METAR LFBO 230300Z AUTO 19004KT 140V220 CAVOK 14/11 Q1017 NOSIG
04:30
V
14 °C 10 km+ - 210° 210° 2 kt METAR LFBO 230230Z AUTO 21002KT CAVOK 14/12 Q1017 NOSIG
04:00
V
14 °C 10 km+ - 190° 190° 2 kt METAR LFBO 230200Z AUTO 19002KT CAVOK 14/12 Q1017 NOSIG
03:30
V
14 °C 10 km+ - 190° 190° 3 kt METAR LFBO 230130Z AUTO 19003KT CAVOK 14/12 Q1017 NOSIG
03:00
V
15 °C 10 km+ - 190° 190° 4 kt METAR LFBO 230100Z AUTO 19004KT CAVOK 15/12 Q1017 NOSIG
02:30
V
15 °C 10 km+ - 180° 180° 3 kt METAR LFBO 230030Z AUTO 18003KT CAVOK 15/12 Q1017 NOSIG
02:00
V
16 °C 10 km+ - 210° 210° 4 kt METAR LFBO 230000Z AUTO 21004KT CAVOK 16/12 Q1018 NOSIG
01:30
V
17 °C 10 km+ - 180° 180° 3 kt METAR LFBO 222330Z AUTO 18003KT CAVOK 17/13 Q1018 NOSIG
01:00
V
17 °C 10 km+ - 150° 150° 6 kt METAR LFBO 222300Z AUTO 15006KT CAVOK 17/13 Q1018 NOSIG
00:30
V
18 °C 10 km+ - 140° 140° 7 kt METAR LFBO 222230Z AUTO 14007KT CAVOK 18/13 Q1018 NOSIG
00:00
V
18 °C 10 km+ - 160° 160° 4 kt METAR LFBO 222200Z AUTO 16004KT CAVOK 18/12 Q1018 NOSIG
较旧的数据

我们和第三方通过cookies跟踪您在我们网站上的上网行为。如果您继续,我们认为您同意我们的cookie政策。 了解更多